createdAt,value
2022-11-06T00:00:16.132Z,13.30
2022-11-06T00:02:06.646Z,13.20
2022-11-06T00:03:57.212Z,13.20
2022-11-06T00:05:47.516Z,13.20
2022-11-06T00:07:38.324Z,13.20
2022-11-06T00:09:29.047Z,13.20
2022-11-06T00:11:19.365Z,13.20
2022-11-06T00:13:09.613Z,13.20
2022-11-06T00:15:01.389Z,13.20
2022-11-06T00:16:51.995Z,13.10
2022-11-06T00:18:42.804Z,13.10
2022-11-06T00:20:33.416Z,13.10
2022-11-06T00:22:24.897Z,13.10
2022-11-06T00:24:15.628Z,13.20
2022-11-06T00:26:07.306Z,13.30
2022-11-06T00:27:58.049Z,13.30
2022-11-06T00:29:48.857Z,13.30
2022-11-06T00:31:40.718Z,13.30
2022-11-06T00:33:31.563Z,13.30
2022-11-06T00:35:22.169Z,13.30
2022-11-06T00:37:13.030Z,13.30
2022-11-06T00:39:03.847Z,13.20
2022-11-06T00:40:54.176Z,13.10
2022-11-06T00:42:44.417Z,13.10
2022-11-06T00:44:34.720Z,13.10
2022-11-06T00:46:25.926Z,13.10
2022-11-06T00:48:17.944Z,13.10
2022-11-06T00:50:09.136Z,13.00
2022-11-06T00:52:00.576Z,13.10
2022-11-06T00:53:54.679Z,13.10
2022-11-06T00:55:45.208Z,13.00
2022-11-06T00:57:35.591Z,13.00
2022-11-06T00:59:26.365Z,13.10
2022-11-06T01:01:19.092Z,13.00
2022-11-06T01:03:09.705Z,13.00
2022-11-06T01:05:01.917Z,13.00
2022-11-06T01:06:54.164Z,12.90
2022-11-06T01:08:47.391Z,12.90
2022-11-06T01:10:37.948Z,12.90
2022-11-06T01:12:30.459Z,12.90
2022-11-06T01:14:22.203Z,12.90
2022-11-06T01:16:14.658Z,12.90
2022-11-06T01:18:05.313Z,12.90
2022-11-06T01:19:55.944Z,12.90
2022-11-06T01:21:49.850Z,12.80
2022-11-06T01:23:40.721Z,12.70
2022-11-06T01:25:31.461Z,12.70
2022-11-06T01:27:26.734Z,12.60
2022-11-06T01:29:19.541Z,12.70
2022-11-06T01:31:11.387Z,12.60
2022-11-06T01:33:01.951Z,12.60
2022-11-06T01:34:52.153Z,12.60
2022-11-06T01:36:42.796Z,12.50
2022-11-06T01:38:34.632Z,12.60
2022-11-06T01:40:25.283Z,12.50
2022-11-06T01:42:15.875Z,12.50
2022-11-06T01:44:44.931Z,12.50
2022-11-06T01:46:36.061Z,12.50
2022-11-06T01:48:28.279Z,12.50
2022-11-06T01:50:19.301Z,12.60
2022-11-06T01:52:12.163Z,12.70
2022-11-06T01:54:06.605Z,12.70
2022-11-06T01:55:59.688Z,12.60
2022-11-06T01:57:50.357Z,12.60
2022-11-06T01:59:43.901Z,12.60
2022-11-06T02:01:34.334Z,12.60
2022-11-06T02:03:25.166Z,12.60
2022-11-06T02:05:15.588Z,12.70
2022-11-06T02:07:06.969Z,12.70
2022-11-06T02:08:57.296Z,12.60
2022-11-06T02:10:49.620Z,12.60
2022-11-06T02:12:47.518Z,12.50
2022-11-06T02:14:42.663Z,12.50
2022-11-06T02:16:39.245Z,12.50
2022-11-06T02:18:44.261Z,12.50
2022-11-06T02:20:39.779Z,12.50
2022-11-06T02:22:45.932Z,12.40
2022-11-06T02:25:16.039Z,12.40
2022-11-06T02:27:10.551Z,12.40
2022-11-06T02:29:05.021Z,12.40
2022-11-06T02:30:58.522Z,12.40
2022-11-06T02:32:51.429Z,12.50
2022-11-06T02:34:44.424Z,12.50
2022-11-06T02:36:37.377Z,12.50
2022-11-06T02:38:31.815Z,12.60
2022-11-06T02:40:23.945Z,12.60
2022-11-06T02:42:17.091Z,12.50
2022-11-06T02:44:09.956Z,12.50
2022-11-06T02:46:04.217Z,12.50
2022-11-06T02:47:55.442Z,12.60
2022-11-06T02:49:49.395Z,12.50
2022-11-06T02:51:44.110Z,12.50
2022-11-06T02:53:35.980Z,12.50
2022-11-06T02:55:28.607Z,12.50
2022-11-06T02:57:21.925Z,12.40
2022-11-06T02:59:14.273Z,12.50
2022-11-06T03:01:08.960Z,12.60
2022-11-06T03:03:02.224Z,12.50
2022-11-06T03:04:55.861Z,12.50
2022-11-06T03:06:50.195Z,12.50
2022-11-06T03:08:44.752Z,12.50
2022-11-06T03:10:40.711Z,12.50
2022-11-06T03:12:34.175Z,12.50
2022-11-06T03:14:29.600Z,12.50
2022-11-06T03:16:28.540Z,12.50
2022-11-06T03:18:25.033Z,12.50
2022-11-06T03:20:20.478Z,12.60
2022-11-06T03:22:13.109Z,12.70
2022-11-06T03:24:11.069Z,12.80
2022-11-06T03:26:09.398Z,12.70
2022-11-06T03:28:04.547Z,12.60
2022-11-06T03:29:58.078Z,12.70
2022-11-06T03:31:51.469Z,12.70
2022-11-06T03:33:44.548Z,12.60
2022-11-06T03:35:38.707Z,12.50
2022-11-06T03:37:32.357Z,12.60
2022-11-06T03:39:27.206Z,12.70
2022-11-06T03:41:20.473Z,12.70
2022-11-06T03:43:15.260Z,12.70
2022-11-06T03:45:09.035Z,12.70
2022-11-06T03:47:02.532Z,12.70
2022-11-06T03:48:56.827Z,12.70
2022-11-06T03:50:49.805Z,12.70
2022-11-06T03:52:44.807Z,12.80
2022-11-06T03:54:39.874Z,12.70
2022-11-06T03:56:35.560Z,12.70
2022-11-06T03:58:31.232Z,12.70
2022-11-06T04:00:22.096Z,12.70
2022-11-06T04:02:13.576Z,12.60
2022-11-06T04:04:07.376Z,12.70
2022-11-06T04:06:03.010Z,12.70
2022-11-06T04:07:55.252Z,12.70
2022-11-06T04:09:49.578Z,12.70
2022-11-06T04:11:41.509Z,12.80
2022-11-06T04:13:34.225Z,12.80
2022-11-06T04:15:25.168Z,12.80
2022-11-06T04:17:16.271Z,12.80
2022-11-06T04:19:09.102Z,12.90
2022-11-06T04:21:09.457Z,12.90
2022-11-06T04:23:08.609Z,12.90
2022-11-06T04:25:07.520Z,12.80
2022-11-06T04:27:17.821Z,12.80
2022-11-06T04:29:18.339Z,12.80
2022-11-06T04:31:12.735Z,12.80
2022-11-06T04:33:08.609Z,12.80
2022-11-06T04:35:04.100Z,12.90
2022-11-06T04:37:01.028Z,12.90
2022-11-06T04:38:56.729Z,12.80
2022-11-06T04:40:52.739Z,12.80
2022-11-06T04:42:47.692Z,12.80
2022-11-06T04:44:41.719Z,12.80
2022-11-06T04:46:36.483Z,12.80
2022-11-06T04:48:27.433Z,12.90
2022-11-06T04:50:19.050Z,12.80
2022-11-06T04:52:12.848Z,12.90
2022-11-06T04:54:04.442Z,12.90
2022-11-06T04:56:02.033Z,12.90
2022-11-06T04:57:52.697Z,12.90
2022-11-06T04:59:44.444Z,12.90
2022-11-06T05:01:35.117Z,12.90
2022-11-06T05:03:25.947Z,12.80
2022-11-06T05:05:16.873Z,12.80
2022-11-06T05:07:07.573Z,12.70
2022-11-06T05:08:58.020Z,12.70
2022-11-06T05:10:48.717Z,12.70
2022-11-06T05:12:39.078Z,12.60
2022-11-06T05:14:29.391Z,12.60
2022-11-06T05:16:21.549Z,12.60
2022-11-06T05:18:12.337Z,12.80
2022-11-06T05:20:04.561Z,12.70
2022-11-06T05:21:55.119Z,12.70
2022-11-06T05:23:45.466Z,12.60
2022-11-06T05:25:37.730Z,12.60
2022-11-06T05:27:28.349Z,12.60
2022-11-06T05:29:18.928Z,12.60
2022-11-06T05:31:09.498Z,12.50
2022-11-06T05:33:02.228Z,12.50
2022-11-06T05:34:52.769Z,12.50
2022-11-06T05:36:43.270Z,12.50
2022-11-06T05:38:33.766Z,12.50
2022-11-06T05:40:24.190Z,12.50
2022-11-06T05:42:14.790Z,12.50
2022-11-06T05:44:05.768Z,12.40
2022-11-06T05:45:56.567Z,12.50
2022-11-06T05:47:47.355Z,12.50
2022-11-06T05:49:39.279Z,12.50
2022-11-06T05:51:29.651Z,12.50
2022-11-06T05:53:20.150Z,12.50
2022-11-06T05:55:14.835Z,12.60
2022-11-06T05:57:05.819Z,12.70
2022-11-06T05:58:56.503Z,12.70
2022-11-06T06:00:47.347Z,12.60
2022-11-06T06:02:38.114Z,12.60
2022-11-06T06:04:28.796Z,12.50
2022-11-06T06:06:21.054Z,12.50
2022-11-06T06:08:11.821Z,12.50
2022-11-06T06:10:02.518Z,12.50
2022-11-06T06:11:53.676Z,12.40
2022-11-06T06:13:44.020Z,12.40
2022-11-06T06:15:34.925Z,12.50
2022-11-06T06:17:25.556Z,12.50
2022-11-06T06:19:16.333Z,12.60
2022-11-06T06:21:07.128Z,12.60
2022-11-06T06:22:59.949Z,12.60
2022-11-06T06:24:50.731Z,12.60
2022-11-06T06:26:41.301Z,12.60
2022-11-06T06:28:31.713Z,12.50
2022-11-06T06:30:22.837Z,12.50
2022-11-06T06:32:13.178Z,12.60
2022-11-06T06:34:03.689Z,12.50
2022-11-06T06:35:54.180Z,12.60
2022-11-06T06:37:50.919Z,12.60
2022-11-06T06:39:42.855Z,12.50
2022-11-06T06:41:33.283Z,12.50
2022-11-06T06:43:23.521Z,12.50
2022-11-06T06:45:13.971Z,12.60
2022-11-06T06:47:04.677Z,12.50
2022-11-06T06:48:55.321Z,12.50
2022-11-06T06:50:46.009Z,12.60
2022-11-06T06:52:36.628Z,12.50
2022-11-06T06:54:27.421Z,12.50
2022-11-06T06:56:19.234Z,12.50
2022-11-06T06:58:13.616Z,12.60
2022-11-06T07:00:09.454Z,12.60
2022-11-06T07:02:00.158Z,12.60
2022-11-06T07:03:50.905Z,12.60
2022-11-06T07:05:41.586Z,12.60
2022-11-06T07:07:32.346Z,12.60
2022-11-06T07:09:23.525Z,12.60
2022-11-06T07:11:13.996Z,12.70
2022-11-06T07:13:06.030Z,12.80
2022-11-06T07:14:56.475Z,12.80
2022-11-06T07:16:52.578Z,12.80
2022-11-06T07:18:46.619Z,12.80
2022-11-06T07:20:37.766Z,12.80
2022-11-06T07:22:35.580Z,12.80
2022-11-06T07:24:27.796Z,13.00
2022-11-06T07:26:18.149Z,13.00
2022-11-06T07:28:10.327Z,13.00
2022-11-06T07:30:01.100Z,13.20
2022-11-06T07:31:51.893Z,13.10
2022-11-06T07:33:42.515Z,13.10
2022-11-06T07:35:33.662Z,13.20
2022-11-06T07:37:24.286Z,13.20
2022-11-06T07:39:14.688Z,13.20
2022-11-06T07:41:07.263Z,13.20
2022-11-06T07:43:03.462Z,13.30
2022-11-06T07:44:55.256Z,13.30
2022-11-06T07:46:45.772Z,13.30
2022-11-06T07:48:36.669Z,13.30
2022-11-06T07:50:27.499Z,13.30
2022-11-06T07:52:18.693Z,13.30
2022-11-06T07:54:10.767Z,13.30
2022-11-06T07:56:02.634Z,13.30
2022-11-06T07:57:53.113Z,13.50
2022-11-06T07:59:43.393Z,13.50
2022-11-06T08:01:35.309Z,13.60
2022-11-06T08:03:26.714Z,13.60
2022-11-06T08:05:17.554Z,13.60
2022-11-06T08:07:08.140Z,13.70
2022-11-06T08:08:59.284Z,13.70
2022-11-06T08:10:49.673Z,13.60
2022-11-06T08:12:40.265Z,13.70
2022-11-06T08:14:33.115Z,13.70
2022-11-06T08:16:25.430Z,13.60
2022-11-06T08:18:17.534Z,13.60
2022-11-06T08:20:09.380Z,13.50
2022-11-06T08:22:00.337Z,13.50
2022-11-06T08:23:51.067Z,13.40
2022-11-06T08:25:41.816Z,13.40
2022-11-06T08:27:32.526Z,13.30
2022-11-06T08:29:23.009Z,13.30
2022-11-06T08:31:13.370Z,13.30
2022-11-06T08:33:06.293Z,13.20
2022-11-06T08:34:58.865Z,13.20
2022-11-06T08:36:49.808Z,13.20
2022-11-06T08:38:40.484Z,13.20
2022-11-06T08:40:31.635Z,13.30
2022-11-06T08:42:22.277Z,13.20
2022-11-06T08:44:12.765Z,13.30
2022-11-06T08:46:04.669Z,13.20
2022-11-06T08:48:00.965Z,13.20
2022-11-06T08:49:51.826Z,13.20
2022-11-06T08:51:43.886Z,13.20
2022-11-06T08:53:35.170Z,13.10
2022-11-06T08:55:25.543Z,13.10
2022-11-06T08:57:16.167Z,13.10
2022-11-06T08:59:07.240Z,13.00
2022-11-06T09:00:58.750Z,13.00
2022-11-06T09:02:49.908Z,12.90
2022-11-06T09:04:41.558Z,12.90
2022-11-06T09:06:32.773Z,12.90
2022-11-06T09:08:24.625Z,12.80
2022-11-06T09:10:15.549Z,12.80
2022-11-06T09:12:07.031Z,12.80
2022-11-06T09:13:58.360Z,12.80
2022-11-06T09:15:50.005Z,12.90
2022-11-06T09:17:43.568Z,12.90
2022-11-06T09:19:34.628Z,12.90
2022-11-06T09:21:25.488Z,13.00
2022-11-06T09:23:16.112Z,13.10
2022-11-06T09:25:09.903Z,13.10
2022-11-06T09:27:00.896Z,13.20
2022-11-06T09:28:51.809Z,13.20
2022-11-06T09:30:43.153Z,13.20
2022-11-06T09:32:35.016Z,13.30
2022-11-06T09:34:25.972Z,13.30
2022-11-06T09:36:17.164Z,13.50
2022-11-06T09:38:11.431Z,13.60
2022-11-06T09:40:06.264Z,13.60
2022-11-06T09:42:03.998Z,13.70
2022-11-06T09:44:06.451Z,13.70
2022-11-06T09:46:02.755Z,13.70
2022-11-06T09:47:58.714Z,13.60
2022-11-06T09:49:51.849Z,13.60
2022-11-06T09:51:46.310Z,13.60
2022-11-06T09:53:41.327Z,13.60
2022-11-06T09:55:35.299Z,13.60
2022-11-06T09:57:34.293Z,13.70
2022-11-06T09:59:25.964Z,13.70
2022-11-06T10:01:24.592Z,13.80
2022-11-06T10:03:22.498Z,13.80
2022-11-06T10:05:25.194Z,13.80
2022-11-06T10:07:25.282Z,13.70
2022-11-06T10:09:16.922Z,13.80
2022-11-06T10:11:42.885Z,13.80
2022-11-06T10:13:44.070Z,13.80
2022-11-06T10:15:40.894Z,13.80
2022-11-06T10:17:44.734Z,13.80
2022-11-06T10:19:39.666Z,13.80
2022-11-06T10:21:36.554Z,13.70
2022-11-06T10:23:31.209Z,13.80
2022-11-06T10:25:24.912Z,13.80
2022-11-06T10:27:17.940Z,13.80
2022-11-06T10:29:38.877Z,13.80
2022-11-06T10:31:34.858Z,13.80
2022-11-06T10:33:34.310Z,13.70
2022-11-06T10:35:29.071Z,13.60
2022-11-06T10:37:22.767Z,13.60
2022-11-06T10:39:17.210Z,13.60
2022-11-06T10:41:15.597Z,13.50
2022-11-06T10:43:12.929Z,13.50
2022-11-06T10:45:08.917Z,13.50
2022-11-06T10:47:04.470Z,13.50
2022-11-06T10:48:58.318Z,13.50
2022-11-06T10:50:55.043Z,13.60
2022-11-06T10:52:53.790Z,13.60
2022-11-06T10:54:56.538Z,13.70
2022-11-06T10:57:01.625Z,13.60
2022-11-06T10:58:52.727Z,13.60
2022-11-06T11:00:44.975Z,13.60
2022-11-06T11:02:39.065Z,13.60
2022-11-06T11:04:31.404Z,13.60
2022-11-06T11:06:22.091Z,13.60
2022-11-06T11:08:36.730Z,13.50
2022-11-06T11:10:30.357Z,13.60
2022-11-06T11:12:23.207Z,13.60
2022-11-06T11:14:15.463Z,13.60
2022-11-06T11:16:13.321Z,13.70
2022-11-06T11:18:19.031Z,13.60
2022-11-06T11:20:30.491Z,13.60
2022-11-06T11:22:21.381Z,13.70
2022-11-06T11:24:12.411Z,13.70
2022-11-06T11:26:27.347Z,13.70
2022-11-06T11:28:25.636Z,13.70
2022-11-06T11:30:20.720Z,13.70
2022-11-06T11:32:15.563Z,13.70
2022-11-06T11:34:16.114Z,13.70
2022-11-06T11:36:08.633Z,13.60
2022-11-06T11:38:08.216Z,13.60
2022-11-06T11:40:19.230Z,13.60
2022-11-06T11:42:27.253Z,13.50
2022-11-06T11:44:19.351Z,13.50
2022-11-06T11:46:19.149Z,13.40
2022-11-06T11:48:14.168Z,13.50
2022-11-06T11:50:32.716Z,13.40
2022-11-06T11:52:23.560Z,13.30
2022-11-06T11:54:18.415Z,13.30
2022-11-06T11:56:14.578Z,13.30
2022-11-06T11:58:17.269Z,13.30
2022-11-06T12:00:15.114Z,13.30
2022-11-06T12:02:14.957Z,13.30
2022-11-06T12:04:16.774Z,13.20
2022-11-06T12:06:10.206Z,13.30
2022-11-06T12:08:01.683Z,13.30
2022-11-06T12:09:52.290Z,13.30
2022-11-06T12:11:43.177Z,13.30
2022-11-06T12:13:33.816Z,13.30
2022-11-06T12:15:26.653Z,13.30
2022-11-06T12:17:20.337Z,13.30
2022-11-06T12:19:13.152Z,13.30
2022-11-06T12:21:06.325Z,13.30
2022-11-06T12:22:58.503Z,13.30
2022-11-06T12:24:53.905Z,13.30
2022-11-06T12:26:48.086Z,13.30
2022-11-06T12:28:40.508Z,13.20
2022-11-06T12:30:30.992Z,13.30
2022-11-06T12:32:27.170Z,13.20
2022-11-06T12:34:23.535Z,13.20
2022-11-06T12:36:17.628Z,13.20
2022-11-06T12:38:15.573Z,13.20
2022-11-06T12:40:22.109Z,13.20
2022-11-06T12:42:15.296Z,13.20
2022-11-06T12:44:09.954Z,13.20
2022-11-06T12:46:36.339Z,13.10
2022-11-06T12:48:38.659Z,13.10
2022-11-06T12:50:37.334Z,13.10
2022-11-06T12:52:38.316Z,13.10
2022-11-06T12:54:40.255Z,13.20
2022-11-06T12:56:39.745Z,13.20
2022-11-06T12:58:50.218Z,13.10
2022-11-06T13:00:50.702Z,13.10
2022-11-06T13:02:59.768Z,13.10
2022-11-06T13:04:55.342Z,13.00
2022-11-06T13:07:05.560Z,13.00
2022-11-06T13:09:02.224Z,13.00
2022-11-06T13:11:01.814Z,12.90
2022-11-06T13:13:00.704Z,12.90
2022-11-06T13:14:57.402Z,12.90
2022-11-06T13:16:53.383Z,12.90
2022-11-06T13:18:51.941Z,12.90
2022-11-06T13:20:47.994Z,12.80
2022-11-06T13:22:50.373Z,12.90
2022-11-06T13:24:45.927Z,12.90
2022-11-06T13:26:39.086Z,12.80
2022-11-06T13:28:34.005Z,13.00
2022-11-06T13:30:24.566Z,13.00
2022-11-06T13:32:17.298Z,13.00
2022-11-06T13:34:15.286Z,13.10
2022-11-06T13:36:06.234Z,13.10
2022-11-06T13:37:59.262Z,13.00
2022-11-06T13:39:53.908Z,13.00
2022-11-06T13:41:44.716Z,13.00
2022-11-06T13:43:37.237Z,12.90
2022-11-06T13:45:28.266Z,12.80
2022-11-06T13:47:21.578Z,12.80
2022-11-06T13:49:18.695Z,12.90
2022-11-06T13:51:15.148Z,12.90
2022-11-06T13:53:13.193Z,12.80
2022-11-06T13:55:10.840Z,12.80
2022-11-06T13:57:22.267Z,12.80
2022-11-06T13:59:42.260Z,12.80
2022-11-06T14:01:46.677Z,12.90
2022-11-06T14:04:00.545Z,12.70
2022-11-06T14:05:53.370Z,12.70
2022-11-06T14:07:44.736Z,12.70
2022-11-06T14:09:37.646Z,12.70
2022-11-06T14:11:31.272Z,12.60
2022-11-06T14:13:27.296Z,12.60
2022-11-06T14:15:26.384Z,12.50
2022-11-06T14:17:22.209Z,12.50
2022-11-06T14:19:14.642Z,12.50
2022-11-06T14:21:23.413Z,12.60
2022-11-06T14:23:51.832Z,12.50
2022-11-06T14:25:58.573Z,12.40
2022-11-06T14:28:05.871Z,12.40
2022-11-06T14:29:58.841Z,12.40
2022-11-06T14:31:59.512Z,12.40
2022-11-06T14:34:00.979Z,12.40
2022-11-06T14:35:52.029Z,12.30
2022-11-06T14:37:46.538Z,12.30
2022-11-06T14:40:04.620Z,12.20
2022-11-06T14:41:58.273Z,12.10
2022-11-06T14:43:50.903Z,12.10
2022-11-06T14:45:50.487Z,12.10
2022-11-06T14:47:42.033Z,12.10
2022-11-06T14:49:38.617Z,12.10
2022-11-06T14:51:29.636Z,12.10
2022-11-06T14:53:22.973Z,12.00
2022-11-06T14:55:31.728Z,12.00
2022-11-06T14:57:55.640Z,12.00
2022-11-06T15:00:02.320Z,11.90
2022-11-06T15:01:59.687Z,11.80
2022-11-06T15:04:09.436Z,11.90
2022-11-06T15:06:20.223Z,11.80
2022-11-06T15:08:11.105Z,11.80
2022-11-06T15:10:01.915Z,11.80
2022-11-06T15:11:57.686Z,11.70
2022-11-06T15:13:49.270Z,11.70
2022-11-06T15:15:40.922Z,11.60
2022-11-06T15:17:35.363Z,11.60
2022-11-06T15:19:28.315Z,11.60
2022-11-06T15:21:22.413Z,11.60
2022-11-06T15:23:19.287Z,11.60
2022-11-06T15:25:21.103Z,11.60
2022-11-06T15:27:15.624Z,11.60
2022-11-06T15:29:17.817Z,11.60
2022-11-06T15:31:13.416Z,11.70
2022-11-06T15:33:06.582Z,11.60
2022-11-06T15:35:03.164Z,11.60
2022-11-06T15:36:55.314Z,11.50
2022-11-06T15:38:46.029Z,11.50
2022-11-06T15:40:38.191Z,11.40
2022-11-06T15:42:29.946Z,11.40
2022-11-06T15:44:23.862Z,11.40
2022-11-06T15:46:20.757Z,11.40
2022-11-06T15:48:20.278Z,11.30
2022-11-06T15:50:14.860Z,11.30
2022-11-06T15:52:05.331Z,11.40
2022-11-06T15:53:55.762Z,11.30
2022-11-06T15:55:50.095Z,11.20
2022-11-06T15:57:41.200Z,11.20
2022-11-06T15:59:33.054Z,11.10
2022-11-06T16:01:32.408Z,11.20
2022-11-06T16:03:24.821Z,11.10
2022-11-06T16:05:15.927Z,11.10
2022-11-06T16:07:07.456Z,11.10
2022-11-06T16:08:58.000Z,11.10
2022-11-06T16:10:48.673Z,11.00
2022-11-06T16:12:38.972Z,10.90
2022-11-06T16:14:29.299Z,10.90
2022-11-06T16:16:37.388Z,10.90
2022-11-06T16:18:29.970Z,10.90
2022-11-06T16:20:20.736Z,11.00
2022-11-06T16:22:13.067Z,10.90
2022-11-06T16:24:04.150Z,10.90
2022-11-06T16:25:59.958Z,10.90
2022-11-06T16:27:50.644Z,10.80
2022-11-06T16:29:45.908Z,10.70
2022-11-06T16:31:38.228Z,10.70
2022-11-06T16:33:29.267Z,10.70
2022-11-06T16:35:33.326Z,10.70
2022-11-06T16:37:44.721Z,10.80
2022-11-06T16:39:49.307Z,10.70
2022-11-06T16:42:01.382Z,10.70
2022-11-06T16:44:19.518Z,10.70
2022-11-06T16:46:10.181Z,10.70
2022-11-06T16:48:26.643Z,10.80
2022-11-06T16:50:42.623Z,10.70
2022-11-06T16:52:34.648Z,10.80
2022-11-06T16:54:26.267Z,10.70
2022-11-06T16:56:22.675Z,10.70
2022-11-06T16:58:15.914Z,10.70
2022-11-06T17:00:11.102Z,10.70
2022-11-06T17:02:02.021Z,10.80
2022-11-06T17:03:57.182Z,10.70
2022-11-06T17:05:52.976Z,10.70
2022-11-06T17:07:44.553Z,10.70
2022-11-06T17:09:36.014Z,10.90
2022-11-06T17:11:26.215Z,10.90
2022-11-06T17:13:18.480Z,10.90
2022-11-06T17:15:09.777Z,10.90
2022-11-06T17:17:01.291Z,10.80
2022-11-06T17:18:52.277Z,10.90
2022-11-06T17:20:47.308Z,10.90
2022-11-06T17:22:37.729Z,10.90
2022-11-06T17:24:36.934Z,10.90
2022-11-06T17:26:29.522Z,10.90
2022-11-06T17:28:20.196Z,10.90
2022-11-06T17:30:13.749Z,11.00
2022-11-06T17:32:04.241Z,11.00
2022-11-06T17:33:54.892Z,11.10
2022-11-06T17:35:47.322Z,11.00
2022-11-06T17:37:37.583Z,11.00
2022-11-06T17:39:28.022Z,11.10
2022-11-06T17:41:18.735Z,11.10
2022-11-06T17:43:09.595Z,11.10
2022-11-06T17:45:00.224Z,11.30
2022-11-06T17:46:50.768Z,11.20
2022-11-06T17:48:41.229Z,11.40
2022-11-06T17:50:31.904Z,11.40
2022-11-06T17:52:23.789Z,11.40
2022-11-06T17:54:14.538Z,11.40
2022-11-06T17:56:06.227Z,11.50
2022-11-06T17:57:57.003Z,11.40
2022-11-06T17:59:47.436Z,11.50
2022-11-06T18:01:38.269Z,11.50
2022-11-06T18:03:32.430Z,11.50
2022-11-06T18:05:27.102Z,11.50
2022-11-06T18:07:18.243Z,11.50
2022-11-06T18:09:10.503Z,11.40
2022-11-06T18:11:01.091Z,11.50
2022-11-06T18:12:51.419Z,11.50
2022-11-06T18:14:41.889Z,11.50
2022-11-06T18:16:34.121Z,11.50
2022-11-06T18:18:24.371Z,11.40
2022-11-06T18:20:14.933Z,11.50
2022-11-06T18:22:06.859Z,11.60
2022-11-06T18:23:57.781Z,11.60
2022-11-06T18:25:55.159Z,11.60
2022-11-06T18:27:45.468Z,11.70
2022-11-06T18:29:36.160Z,11.60
2022-11-06T18:31:26.672Z,11.70
2022-11-06T18:33:17.575Z,11.70
2022-11-06T18:35:09.222Z,11.70
2022-11-06T18:36:59.782Z,11.70
2022-11-06T18:38:50.247Z,11.70
2022-11-06T18:40:40.971Z,11.80
2022-11-06T18:42:32.742Z,11.90
2022-11-06T18:44:23.032Z,11.80
2022-11-06T18:46:15.066Z,11.80
2022-11-06T18:48:06.140Z,11.90
2022-11-06T18:49:56.624Z,11.80
2022-11-06T18:51:47.107Z,11.80
2022-11-06T18:53:38.230Z,11.80
2022-11-06T18:55:28.650Z,11.90
2022-11-06T18:57:19.146Z,12.00
2022-11-06T18:59:14.871Z,11.90
2022-11-06T19:01:06.763Z,11.80
2022-11-06T19:02:57.381Z,11.80
2022-11-06T19:04:47.544Z,11.80
2022-11-06T19:06:39.000Z,11.70
2022-11-06T19:08:29.351Z,11.60
2022-11-06T19:10:20.125Z,11.70
2022-11-06T19:12:10.873Z,11.70
2022-11-06T19:14:01.934Z,11.80
2022-11-06T19:15:56.299Z,11.80
2022-11-06T19:17:47.162Z,11.90
2022-11-06T19:19:37.606Z,11.80
2022-11-06T19:21:28.279Z,11.80
2022-11-06T19:23:19.080Z,11.80
2022-11-06T19:25:10.060Z,11.90
2022-11-06T19:27:00.439Z,12.00
2022-11-06T19:28:51.401Z,12.10
2022-11-06T19:30:41.969Z,12.10
2022-11-06T19:32:34.124Z,12.10
2022-11-06T19:34:24.818Z,12.10
2022-11-06T19:36:15.508Z,12.10
2022-11-06T19:38:06.207Z,12.10
2022-11-06T19:40:00.315Z,12.10
2022-11-06T19:41:55.394Z,12.10
2022-11-06T19:43:46.387Z,12.10
2022-11-06T19:45:36.944Z,12.30
2022-11-06T19:47:27.456Z,12.40
2022-11-06T19:49:19.874Z,12.40
2022-11-06T19:51:11.245Z,12.40
2022-11-06T19:53:02.288Z,12.40
2022-11-06T19:55:24.992Z,12.40
2022-11-06T19:57:27.241Z,12.40
2022-11-06T19:59:15.394Z,12.50
2022-11-06T20:01:09.631Z,12.60
2022-11-06T20:03:00.379Z,12.70
2022-11-06T20:04:52.686Z,12.80
2022-11-06T20:06:43.337Z,12.70
2022-11-06T20:08:33.980Z,12.70
2022-11-06T20:10:24.567Z,12.80
2022-11-06T20:12:15.902Z,12.80
2022-11-06T20:14:06.713Z,12.90
2022-11-06T20:15:57.808Z,12.80
2022-11-06T20:17:48.566Z,12.80
2022-11-06T20:19:39.095Z,12.80
2022-11-06T20:21:30.919Z,12.90
2022-11-06T20:23:21.627Z,12.80
2022-11-06T20:25:12.511Z,12.90
2022-11-06T20:27:07.277Z,12.90
2022-11-06T20:29:00.981Z,12.80
2022-11-06T20:30:51.634Z,12.80
2022-11-06T20:32:41.930Z,12.90
2022-11-06T20:34:32.534Z,12.90
2022-11-06T20:36:24.537Z,12.90
2022-11-06T20:38:16.433Z,12.90
2022-11-06T20:40:08.695Z,12.80
2022-11-06T20:41:59.088Z,12.80
2022-11-06T20:43:51.001Z,12.80
2022-11-06T20:45:41.468Z,12.80
2022-11-06T20:47:32.161Z,12.90
2022-11-06T20:49:23.090Z,12.90
2022-11-06T20:51:15.560Z,12.90
2022-11-06T20:53:05.959Z,12.90
2022-11-06T20:54:57.777Z,12.90
2022-11-06T20:56:48.370Z,12.90
2022-11-06T20:58:38.929Z,12.90
2022-11-06T21:00:29.786Z,12.80
2022-11-06T21:02:20.244Z,12.80
2022-11-06T21:04:11.144Z,12.90
2022-11-06T21:06:01.919Z,12.90
2022-11-06T21:07:52.468Z,12.90
2022-11-06T21:09:43.613Z,13.00
2022-11-06T21:11:38.122Z,12.90
2022-11-06T21:13:28.803Z,13.00
2022-11-06T21:15:19.584Z,13.10
2022-11-06T21:17:10.264Z,13.00
2022-11-06T21:19:01.570Z,13.00
2022-11-06T21:20:52.277Z,13.10
2022-11-06T21:22:42.813Z,13.00
2022-11-06T21:24:34.153Z,13.00
2022-11-06T21:26:26.701Z,13.10
2022-11-06T21:28:18.889Z,13.10
2022-11-06T21:30:09.944Z,13.00
2022-11-06T21:32:06.210Z,13.00
2022-11-06T21:33:58.893Z,13.00
2022-11-06T21:35:49.383Z,13.00
2022-11-06T21:37:39.729Z,13.00
2022-11-06T21:39:34.784Z,13.10
2022-11-06T21:41:28.469Z,13.10
2022-11-06T21:43:20.439Z,13.10
2022-11-06T21:45:14.817Z,13.20
2022-11-06T21:47:06.199Z,13.10
2022-11-06T21:48:57.627Z,13.20
2022-11-06T21:50:51.018Z,13.20
2022-11-06T21:52:41.732Z,13.20
2022-11-06T21:54:32.555Z,13.20
2022-11-06T21:56:26.219Z,13.20
2022-11-06T21:58:17.867Z,13.20
2022-11-06T22:00:14.377Z,13.20
2022-11-06T22:02:07.155Z,13.20
2022-11-06T22:04:00.374Z,13.30
2022-11-06T22:05:51.292Z,13.20
2022-11-06T22:07:41.900Z,13.30
2022-11-06T22:09:32.393Z,13.20
2022-11-06T22:11:24.411Z,13.20
2022-11-06T22:13:15.641Z,13.20
2022-11-06T22:15:08.146Z,13.30
2022-11-06T22:17:00.019Z,13.30
2022-11-06T22:18:51.147Z,13.20
2022-11-06T22:20:41.763Z,13.20
2022-11-06T22:22:32.644Z,13.20
2022-11-06T22:24:22.928Z,13.30
2022-11-06T22:26:15.401Z,13.30
2022-11-06T22:28:05.895Z,13.30
2022-11-06T22:29:56.456Z,13.40
2022-11-06T22:31:46.851Z,13.40
2022-11-06T22:33:38.479Z,13.40
2022-11-06T22:35:29.131Z,13.40
2022-11-06T22:37:19.947Z,13.30
2022-11-06T22:39:11.763Z,13.30
2022-11-06T22:41:03.313Z,13.30
2022-11-06T22:42:53.753Z,13.30
2022-11-06T22:44:44.040Z,13.30
2022-11-06T22:46:34.807Z,13.30
2022-11-06T22:48:25.773Z,13.40
2022-11-06T22:50:17.445Z,13.40
2022-11-06T22:52:07.995Z,13.30
2022-11-06T22:53:59.251Z,13.30
2022-11-06T22:55:49.583Z,13.40
2022-11-06T22:57:40.028Z,13.60
2022-11-06T22:59:31.427Z,13.60
2022-11-06T23:01:23.193Z,13.60
2022-11-06T23:03:14.035Z,13.60
2022-11-06T23:05:05.587Z,13.60
2022-11-06T23:06:57.682Z,13.50
2022-11-06T23:08:51.459Z,13.50
2022-11-06T23:10:42.881Z,13.50
2022-11-06T23:12:36.591Z,13.60
2022-11-06T23:14:28.478Z,13.60
2022-11-06T23:16:21.367Z,13.60
2022-11-06T23:18:11.762Z,13.60
2022-11-06T23:20:02.200Z,13.60
2022-11-06T23:21:52.692Z,13.60
2022-11-06T23:23:45.435Z,13.70
2022-11-06T23:25:35.868Z,13.70
2022-11-06T23:27:26.533Z,13.70
2022-11-06T23:29:16.834Z,13.70
2022-11-06T23:31:07.765Z,13.60
2022-11-06T23:32:58.680Z,13.60
2022-11-06T23:34:51.044Z,13.60
2022-11-06T23:36:41.685Z,13.60
2022-11-06T23:38:32.280Z,13.70
2022-11-06T23:40:24.404Z,13.70
2022-11-06T23:42:15.546Z,13.60
2022-11-06T23:44:06.390Z,13.60
2022-11-06T23:45:56.949Z,13.60
2022-11-06T23:47:48.346Z,13.60
2022-11-06T23:49:39.113Z,13.70
2022-11-06T23:51:29.330Z,13.80
2022-11-06T23:53:19.985Z,13.70
2022-11-06T23:55:10.687Z,13.70
2022-11-06T23:57:02.591Z,13.70
2022-11-06T23:58:53.195Z,13.70
